sensor_id;sensor_type;location;lat;lon;timestamp;pressure;altitude;pressure_sealevel;temperature;humidity
64362;BME280;50685;53.346;-6.296;2022-11-15T07:32:27;98988.59;;;7.45;82.84
64362;BME280;50685;53.346;-6.296;2022-11-15T07:34:53;98991.34;;;7.42;83.78
64362;BME280;50685;53.346;-6.296;2022-11-15T07:37:21;98987.94;;;7.38;82.99
64362;BME280;50685;53.346;-6.296;2022-11-15T07:45:30;98988.22;;;7.27;84.77
64362;BME280;50685;53.346;-6.296;2022-11-15T07:48:02;98991.88;;;7.23;85.21
64362;BME280;50685;53.346;-6.296;2022-11-15T07:50:31;98992.84;;;7.20;85.12
64362;BME280;50685;53.346;-6.296;2022-11-15T07:52:59;98989.41;;;7.17;85.65
64362;BME280;50685;53.346;-6.296;2022-11-15T07:55:39;98978.13;;;7.12;85.22
64362;BME280;50685;53.346;-6.296;2022-11-15T07:58:14;98980.78;;;7.10;85.58
64362;BME280;50685;53.346;-6.296;2022-11-15T08:00:42;98981.75;;;7.07;85.71
64362;BME280;50685;53.346;-6.296;2022-11-15T08:19:15;99001.09;;;7.06;86.27
64362;BME280;50685;53.346;-6.296;2022-11-15T08:21:40;98989.66;;;7.07;85.83
64362;BME280;50685;53.346;-6.296;2022-11-15T08:24:09;98981.69;;;7.11;85.86
64362;BME280;50685;53.346;-6.296;2022-11-15T09:40:09;98980.81;;;8.27;77.36
64362;BME280;50685;53.346;-6.296;2022-11-15T09:58:16;98951.97;;;9.23;72.16
64362;BME280;50685;53.346;-6.296;2022-11-15T10:00:53;98949.16;;;9.28;70.78
64362;BME280;50685;53.346;-6.296;2022-11-15T10:03:23;98948.16;;;9.30;70.56
64362;BME280;50685;53.346;-6.296;2022-11-15T10:11:55;98950.25;;;9.90;70.13
64362;BME280;50685;53.346;-6.296;2022-11-15T10:30:20;98933.03;;;11.07;63.55
64362;BME280;50685;53.346;-6.296;2022-11-15T10:56:12;98916.78;;;11.53;57.84
64362;BME280;50685;53.346;-6.296;2022-11-15T11:12:19;98916.91;;;11.50;58.79
64362;BME280;50685;53.346;-6.296;2022-11-15T11:14:54;98918.78;;;11.29;57.01
64362;BME280;50685;53.346;-6.296;2022-11-15T11:17:27;98914.81;;;11.18;57.10
64362;BME280;50685;53.346;-6.296;2022-11-15T11:30:10;98906.81;;;11.20;56.78
64362;BME280;50685;53.346;-6.296;2022-11-15T11:32:42;98896.56;;;11.31;56.78
64362;BME280;50685;53.346;-6.296;2022-11-15T11:40:43;98895.00;;;11.64;54.96
64362;BME280;50685;53.346;-6.296;2022-11-15T11:43:16;98883.34;;;11.49;55.56
64362;BME280;50685;53.346;-6.296;2022-11-15T11:48:44;98867.28;;;11.52;57.07
64362;BME280;50685;53.346;-6.296;2022-11-15T11:53:41;98847.31;;;11.99;55.71
64362;BME280;50685;53.346;-6.296;2022-11-15T11:56:21;98855.22;;;12.18;55.67
64362;BME280;50685;53.346;-6.296;2022-11-15T11:58:47;98846.22;;;12.38;53.82
64362;BME280;50685;53.346;-6.296;2022-11-15T12:01:28;98854.47;;;12.67;54.10
64362;BME280;50685;53.346;-6.296;2022-11-15T12:03:59;98846.47;;;12.84;52.87
64362;BME280;50685;53.346;-6.296;2022-11-15T12:07:27;98840.38;;;12.98;50.39
64362;BME280;50685;53.346;-6.296;2022-11-15T12:09:23;98840.66;;;13.10;51.81
64362;BME280;50685;53.346;-6.296;2022-11-15T12:11:54;98849.91;;;13.18;49.22
64362;BME280;50685;53.346;-6.296;2022-11-15T12:14:26;98853.97;;;13.26;50.96
64362;BME280;50685;53.346;-6.296;2022-11-15T12:16:53;98849.81;;;13.38;49.78
64362;BME280;50685;53.346;-6.296;2022-11-15T12:19:20;98848.94;;;13.69;48.96
64362;BME280;50685;53.346;-6.296;2022-11-15T12:21:47;98847.59;;;13.92;50.56
64362;BME280;50685;53.346;-6.296;2022-11-15T12:24:40;98832.78;;;14.03;47.45
64362;BME280;50685;53.346;-6.296;2022-11-15T12:27:13;98832.06;;;14.15;47.54
64362;BME280;50685;53.346;-6.296;2022-11-15T12:29:42;98834.56;;;14.33;49.34
64362;BME280;50685;53.346;-6.296;2022-11-15T12:35:05;98818.13;;;14.40;46.23
64362;BME280;50685;53.346;-6.296;2022-11-15T12:42:35;98801.44;;;14.51;44.73
64362;BME280;50685;53.346;-6.296;2022-11-15T12:45:01;98799.94;;;14.61;45.24
64362;BME280;50685;53.346;-6.296;2022-11-15T12:47:29;98807.75;;;14.65;47.81
64362;BME280;50685;53.346;-6.296;2022-11-15T12:49:55;98808.19;;;14.73;45.41
64362;BME280;50685;53.346;-6.296;2022-11-15T12:52:24;98799.50;;;14.84;44.75
64362;BME280;50685;53.346;-6.296;2022-11-15T13:20:48;98770.09;;;17.11;41.27
64362;BME280;50685;53.346;-6.296;2022-11-15T13:23:20;98760.25;;;17.36;43.43
64362;BME280;50685;53.346;-6.296;2022-11-15T13:32:09;98765.72;;;16.97;38.95
64362;BME280;50685;53.346;-6.296;2022-11-15T13:34:39;98763.56;;;16.89;39.39
64362;BME280;50685;53.346;-6.296;2022-11-15T13:48:24;98753.28;;;17.33;37.77
64362;BME280;50685;53.346;-6.296;2022-11-15T13:54:45;98755.69;;;17.49;39.47
64362;BME280;50685;53.346;-6.296;2022-11-15T14:00:41;98759.84;;;17.53;39.71
64362;BME280;50685;53.346;-6.296;2022-11-15T14:06:33;98734.59;;;17.44;37.85
64362;BME280;50685;53.346;-6.296;2022-11-15T14:09:22;98742.03;;;17.28;37.73
64362;BME280;50685;53.346;-6.296;2022-11-15T14:11:53;98741.19;;;17.27;40.27
64362;BME280;50685;53.346;-6.296;2022-11-15T14:14:45;98742.22;;;17.38;38.12
64362;BME280;50685;53.346;-6.296;2022-11-15T14:23:00;98734.59;;;18.16;38.81
64362;BME280;50685;53.346;-6.296;2022-11-15T14:25:35;98731.31;;;18.12;40.20
64362;BME280;50685;53.346;-6.296;2022-11-15T14:34:13;98728.59;;;16.53;39.30
64362;BME280;50685;53.346;-6.296;2022-11-15T14:36:42;98739.41;;;16.13;42.81
64362;BME280;50685;53.346;-6.296;2022-11-15T14:39:18;98731.69;;;15.96;41.49
64362;BME280;50685;53.346;-6.296;2022-11-15T14:41:53;98732.34;;;15.59;40.98
64362;BME280;50685;53.346;-6.296;2022-11-15T14:44:44;98724.00;;;15.23;42.84
64362;BME280;50685;53.346;-6.296;2022-11-15T14:47:12;98736.56;;;14.94;44.52
64362;BME280;50685;53.346;-6.296;2022-11-15T14:49:48;98732.03;;;14.53;43.96
64362;BME280;50685;53.346;-6.296;2022-11-15T14:52:30;98737.53;;;14.21;44.25
64362;BME280;50685;53.346;-6.296;2022-11-15T14:55:16;98732.94;;;13.94;44.93
64362;BME280;50685;53.346;-6.296;2022-11-15T14:57:46;98723.81;;;13.68;46.54
64362;BME280;50685;53.346;-6.296;2022-11-15T15:00:25;98721.38;;;13.48;46.27
64362;BME280;50685;53.346;-6.296;2022-11-15T15:02:52;98717.84;;;13.32;47.28
64362;BME280;50685;53.346;-6.296;2022-11-15T15:05:21;98718.91;;;13.13;47.91
64362;BME280;50685;53.346;-6.296;2022-11-15T15:10:38;98714.19;;;12.86;50.13
64362;BME280;50685;53.346;-6.296;2022-11-15T15:13:08;98701.94;;;12.84;49.08
64362;BME280;50685;53.346;-6.296;2022-11-15T15:15:37;98708.81;;;12.72;49.02
64362;BME280;50685;53.346;-6.296;2022-11-15T15:18:05;98707.84;;;12.73;49.92
64362;BME280;50685;53.346;-6.296;2022-11-15T15:20:31;98701.69;;;12.73;48.99
64362;BME280;50685;53.346;-6.296;2022-11-15T15:22:57;98703.19;;;12.61;49.67
64362;BME280;50685;53.346;-6.296;2022-11-15T15:25:28;98707.34;;;12.66;50.21
64362;BME280;50685;53.346;-6.296;2022-11-15T15:27:58;98698.66;;;12.63;50.73
64362;BME280;50685;53.346;-6.296;2022-11-15T15:30:24;98699.44;;;12.49;51.41
64362;BME280;50685;53.346;-6.296;2022-11-15T15:32:50;98700.84;;;12.38;50.64
64362;BME280;50685;53.346;-6.296;2022-11-15T15:35:18;98695.19;;;12.29;51.06
64362;BME280;50685;53.346;-6.296;2022-11-15T15:37:47;98691.91;;;12.24;51.46
64362;BME280;50685;53.346;-6.296;2022-11-15T15:43:05;98689.69;;;12.16;52.38
64362;BME280;50685;53.346;-6.296;2022-11-15T15:45:36;98690.00;;;12.10;52.78
64362;BME280;50685;53.346;-6.296;2022-11-15T15:48:22;98691.28;;;12.02;54.15
64362;BME280;50685;53.346;-6.296;2022-11-15T16:03:54;98685.03;;;11.51;56.75
64362;BME280;50685;53.346;-6.296;2022-11-15T16:09:18;98676.59;;;11.43;56.95
64362;BME280;50685;53.346;-6.296;2022-11-15T16:12:06;98673.63;;;11.31;56.85
64362;BME280;50685;53.346;-6.296;2022-11-15T16:14:38;98671.41;;;11.22;56.95
64362;BME280;50685;53.346;-6.296;2022-11-15T16:29:47;98653.94;;;11.00;57.04
64362;BME280;50685;53.346;-6.296;2022-11-15T16:32:16;98658.84;;;10.90;57.09
64362;BME280;50685;53.346;-6.296;2022-11-15T16:34:56;98660.84;;;10.85;57.47
64362;BME280;50685;53.346;-6.296;2022-11-15T16:37:23;98657.53;;;10.80;57.70
64362;BME280;50685;53.346;-6.296;2022-11-15T16:39:48;98657.84;;;10.74;57.61
64362;BME280;50685;53.346;-6.296;2022-11-15T16:42:14;98667.09;;;10.65;58.67
64362;BME280;50685;53.346;-6.296;2022-11-15T16:44:42;98660.38;;;10.58;58.86
64362;BME280;50685;53.346;-6.296;2022-11-15T16:50:38;98655.31;;;10.53;59.35
64362;BME280;50685;53.346;-6.296;2022-11-15T16:58:35;98660.22;;;10.42;59.05
64362;BME280;50685;53.346;-6.296;2022-11-15T17:10:21;98658.88;;;10.12;60.68
64362;BME280;50685;53.346;-6.296;2022-11-15T22:52:22;98538.06;;;8.03;72.24
64362;BME280;50685;53.346;-6.296;2022-11-15T23:01:36;98537.31;;;8.00;72.93
64362;BME280;50685;53.346;-6.296;2022-11-15T23:07:24;98530.38;;;7.97;73.61
64362;BME280;50685;53.346;-6.296;2022-11-15T23:27:51;98521.97;;;8.10;74.73
64362;BME280;50685;53.346;-6.296;2022-11-15T23:33:22;98529.97;;;8.08;75.36
64362;BME280;50685;53.346;-6.296;2022-11-15T23:36:07;98527.38;;;8.07;75.64
64362;BME280;50685;53.346;-6.296;2022-11-15T23:38:59;98529.16;;;8.06;75.92
64362;BME280;50685;53.346;-6.296;2022-11-15T23:41:36;98533.56;;;8.06;76.04
64362;BME280;50685;53.346;-6.296;2022-11-15T23:44:27;98524.00;;;8.03;76.85
64362;BME280;50685;53.346;-6.296;2022-11-15T23:47:11;98521.53;;;7.98;77.70
64362;BME280;50685;53.346;-6.296;2022-11-15T23:49:39;98518.47;;;7.87;79.31
64362;BME280;50685;53.346;-6.296;2022-11-15T23:52:07;98509.16;;;7.77;80.73
64362;BME280;50685;53.346;-6.296;2022-11-15T23:54:48;98514.13;;;7.62;81.03
64362;BME280;50685;53.346;-6.296;2022-11-15T23:57:19;98519.63;;;7.56;81.67
